Hovedside
METAR-TAF:

METAR-TAF

Lufthavner :

Victoria, Mahé, Seychellene

breddegrad: 04-40S, lengdegrad: 055-31E, høyde over havet: 3 m

Gjeldene værobservasjon

Denne rapporten ble laget for 54 minutter siden, klokken 19:00 UTC
Vind 11 kt fra Sørøst, skiftende mellom Øst-sørøst og Sør
Temperatur 25°C
Luftfuktighet 83%
Trykk 1014 hPa
Sikt 10 km eller mer
Spredte skyer i en høyde av 1500 ft

METAR: FSIA 161900Z 14011KT 110V170 9999 R13///// SCT015 25/22 Q1014 NOSIG

Tid: 23:54 (19:54 UTC)

Varsel

Denne rapporten ble laget for 2 timer og 51 minutter siden, klokken 17:03 UTC
Varsel gyldig fra 16. klokken 18 UTC til 17. klokken 18 UTC
Vind 15 kt fra Sørøst med vindkast opp mot 20 kt
Sikt 10 km eller mer
Spredte skyer i en høyde av 2000 ft
Sannsynlighet 40% :
Midlertidig
fra 16. klokken 23 UTC til 17. klokken 02 UTC
Brutte skyer i en høyde av 1700 ft
lette regnbyger

TAF: FSIA 161703Z 1618/1718 14015G20KT 9999 SCT020 PROB40 TEMPO 1623/1702 -SHRA BKN017

Værobservasjoner og værvarsel for over 4000 flyplasser (METAR- og TAF-rapporter).

Tilgjengelige stasjoner er representert av de røde og gule prikkene på kartet.

Hold musepekeren over prikken for å se navnet på stasjonen.

Klikk så for å se værobservasjoner og -varsler.

For å forandre kartet kan du klikke på den grønne knappen med svart kryss for å zoome inn, på den grønne knappen med strek for å zoome ut, eller på de grønne pilene for å se tilstøtende kart.


METAR-TAF: